createdAt,value
2023-02-06T00:01:42.774Z,69.94
2023-02-06T00:04:10.798Z,70.26
2023-02-06T00:06:38.714Z,70.38
2023-02-06T00:09:07.066Z,70.35
2023-02-06T00:11:35.122Z,71.20
2023-02-06T00:14:03.337Z,72.44
2023-02-06T00:16:34.236Z,72.77
2023-02-06T00:19:02.572Z,72.50
2023-02-06T00:21:31.125Z,71.96
2023-02-06T00:24:01.134Z,73.05
2023-02-06T00:26:31.226Z,72.90
2023-02-06T00:28:59.123Z,72.64
2023-02-06T00:31:27.019Z,72.96
2023-02-06T00:33:55.039Z,72.04
2023-02-06T00:36:22.959Z,71.91
2023-02-06T00:38:52.624Z,72.55
2023-02-06T00:41:21.636Z,71.76
2023-02-06T00:43:52.137Z,72.99
2023-02-06T00:46:20.710Z,73.08
2023-02-06T00:48:48.567Z,73.91
2023-02-06T00:51:16.407Z,74.31
2023-02-06T00:53:44.469Z,72.96
2023-02-06T00:56:12.370Z,73.41
2023-02-06T00:58:40.210Z,73.83
2023-02-06T01:01:08.340Z,74.37
2023-02-06T01:03:36.176Z,74.39
2023-02-06T01:06:04.071Z,73.72
2023-02-06T01:08:32.029Z,73.02
2023-02-06T01:11:00.657Z,74.00
2023-02-06T01:13:28.717Z,73.47
2023-02-06T01:15:56.622Z,74.14
2023-02-06T01:18:24.550Z,74.23
2023-02-06T01:20:52.350Z,72.76
2023-02-06T01:23:20.221Z,72.29
2023-02-06T01:25:48.058Z,72.32
2023-02-06T01:28:17.499Z,73.77
2023-02-06T01:30:45.628Z,73.46
2023-02-06T01:33:13.478Z,74.05
2023-02-06T01:35:41.301Z,73.71
2023-02-06T01:38:09.234Z,74.74
2023-02-06T01:40:37.062Z,74.93
2023-02-06T01:43:16.008Z,73.98
2023-02-06T01:45:46.061Z,74.60
2023-02-06T01:48:19.311Z,74.74
2023-02-06T01:50:54.288Z,74.99
2023-02-06T01:53:24.298Z,76.12
2023-02-06T01:55:55.158Z,75.60
2023-02-06T01:58:32.522Z,76.00
2023-02-06T02:01:02.020Z,75.90
2023-02-06T02:03:32.537Z,74.91
2023-02-06T02:06:07.026Z,75.42
2023-02-06T02:08:40.854Z,74.38
2023-02-06T02:11:12.559Z,75.90
2023-02-06T02:13:40.672Z,74.69
2023-02-06T02:16:46.402Z,75.13
2023-02-06T02:19:51.553Z,75.01
2023-02-06T02:22:50.163Z,74.25
2023-02-06T02:25:55.419Z,74.41
2023-02-06T02:28:29.247Z,74.68
2023-02-06T02:31:09.659Z,74.59
2023-02-06T02:33:49.634Z,74.49
2023-02-06T02:36:42.513Z,74.37
2023-02-06T02:39:44.476Z,74.54
2023-02-06T02:42:22.851Z,74.53
2023-02-06T02:44:57.415Z,75.14
2023-02-06T02:47:30.822Z,74.66
2023-02-06T02:50:00.950Z,74.99
2023-02-06T02:52:29.158Z,75.47
2023-02-06T02:54:56.992Z,74.69
2023-02-06T02:57:29.271Z,74.86
2023-02-06T03:00:00.069Z,75.33
2023-02-06T03:02:39.277Z,75.72
2023-02-06T03:05:12.167Z,75.59
2023-02-06T03:08:23.022Z,75.90
2023-02-06T03:11:16.316Z,76.96
2023-02-06T03:14:06.076Z,75.96
2023-02-06T03:16:42.635Z,76.31
2023-02-06T03:19:24.553Z,77.01
2023-02-06T03:21:52.380Z,76.50
2023-02-06T03:24:26.623Z,77.54
2023-02-06T03:27:02.197Z,77.77
2023-02-06T03:29:34.291Z,79.19
2023-02-06T03:32:16.566Z,77.56
2023-02-06T03:34:56.037Z,78.23
2023-02-06T03:37:25.879Z,78.30
2023-02-06T03:39:55.472Z,78.61
2023-02-06T03:42:25.111Z,79.02
2023-02-06T03:45:08.218Z,78.70
2023-02-06T03:47:38.727Z,78.31
2023-02-06T03:50:09.901Z,79.15
2023-02-06T03:52:43.041Z,78.64
2023-02-06T03:55:15.212Z,78.82
2023-02-06T03:57:47.963Z,79.03
2023-02-06T04:00:16.438Z,78.86
2023-02-06T04:02:47.595Z,79.38
2023-02-06T04:05:17.374Z,79.51
2023-02-06T04:07:45.321Z,79.05
2023-02-06T04:10:13.217Z,80.55
2023-02-06T04:12:41.287Z,80.52
2023-02-06T04:15:09.379Z,79.59
2023-02-06T04:17:53.707Z,79.33
2023-02-06T04:20:26.705Z,78.35
2023-02-06T04:22:54.505Z,77.43
2023-02-06T04:25:22.374Z,77.62
2023-02-06T04:27:50.353Z,77.95
2023-02-06T04:30:18.779Z,79.01
2023-02-06T04:32:46.818Z,78.54
2023-02-06T04:35:14.659Z,78.84
2023-02-06T04:37:42.460Z,79.71
2023-02-06T04:40:11.044Z,78.97
2023-02-06T04:42:38.966Z,79.19
2023-02-06T04:45:07.324Z,79.14
2023-02-06T04:47:35.219Z,78.75
2023-02-06T04:50:04.149Z,78.78
2023-02-06T04:52:32.046Z,79.51
2023-02-06T04:54:59.942Z,78.52
2023-02-06T04:57:27.960Z,77.89
2023-02-06T04:59:55.781Z,78.07
2023-02-06T05:02:23.735Z,78.17
2023-02-06T05:04:51.579Z,76.87
2023-02-06T05:07:19.480Z,77.63
2023-02-06T05:09:47.365Z,78.17
2023-02-06T05:12:15.226Z,77.30
2023-02-06T05:14:43.052Z,77.56
2023-02-06T05:17:10.946Z,77.60
2023-02-06T05:19:38.822Z,77.80
2023-02-06T05:22:06.782Z,77.37
2023-02-06T05:24:34.662Z,78.38
2023-02-06T05:27:02.465Z,78.97
2023-02-06T05:29:30.384Z,78.97
2023-02-06T05:31:58.462Z,79.64
2023-02-06T05:34:26.470Z,80.04
2023-02-06T05:36:54.370Z,80.23
2023-02-06T05:39:22.406Z,80.17
2023-02-06T05:41:50.305Z,79.95
2023-02-06T05:44:18.186Z,79.87
2023-02-06T05:46:48.418Z,78.84
2023-02-06T05:49:16.618Z,79.34
2023-02-06T05:51:44.576Z,78.88
2023-02-06T05:54:13.181Z,78.89
2023-02-06T05:56:41.251Z,79.74
2023-02-06T05:59:09.273Z,79.13
2023-02-06T06:01:37.181Z,79.79
2023-02-06T06:04:05.338Z,79.98
2023-02-06T06:06:33.320Z,80.05
2023-02-06T06:09:01.402Z,79.04
2023-02-06T06:11:30.252Z,79.34
2023-02-06T06:13:58.126Z,79.57
2023-02-06T06:16:26.080Z,78.78
2023-02-06T06:18:53.984Z,79.32
2023-02-06T06:21:23.083Z,80.11
2023-02-06T06:23:51.036Z,80.31
2023-02-06T06:26:19.924Z,80.67
2023-02-06T06:28:48.260Z,80.60
2023-02-06T06:31:16.500Z,80.45
2023-02-06T06:33:44.714Z,80.14
2023-02-06T06:36:14.595Z,81.36
2023-02-06T06:38:42.629Z,80.67
2023-02-06T06:41:10.676Z,79.97
2023-02-06T06:43:39.434Z,80.19
2023-02-06T06:46:10.742Z,80.30
2023-02-06T06:48:38.666Z,81.07
2023-02-06T06:51:06.821Z,80.29
2023-02-06T06:53:34.842Z,81.24
2023-02-06T06:56:07.932Z,80.63
2023-02-06T06:58:36.650Z,80.52
2023-02-06T07:01:05.187Z,81.12
2023-02-06T07:03:33.070Z,81.49
2023-02-06T07:06:01.174Z,80.96
2023-02-06T07:08:30.101Z,80.33
2023-02-06T07:10:58.279Z,81.33
2023-02-06T07:13:26.200Z,81.21
2023-02-06T07:15:54.090Z,80.24
2023-02-06T07:18:22.221Z,80.00
2023-02-06T07:20:51.416Z,80.88
2023-02-06T07:23:19.315Z,79.51
2023-02-06T07:25:47.186Z,80.01
2023-02-06T07:28:15.265Z,79.94
2023-02-06T07:30:43.254Z,79.93
2023-02-06T07:33:11.200Z,79.85
2023-02-06T07:35:39.217Z,79.10
2023-02-06T07:38:07.103Z,79.79
2023-02-06T07:40:44.719Z,79.35
2023-02-06T07:43:13.847Z,79.31
2023-02-06T07:45:41.963Z,79.40
2023-02-06T07:48:09.921Z,79.00
2023-02-06T07:50:38.094Z,78.24
2023-02-06T07:53:06.247Z,78.54
2023-02-06T07:55:37.003Z,79.30
2023-02-06T07:58:05.057Z,78.60
2023-02-06T08:00:33.169Z,78.33
2023-02-06T08:03:01.037Z,78.12
2023-02-06T08:05:28.888Z,77.12
2023-02-06T08:07:56.916Z,77.57
2023-02-06T08:10:25.638Z,77.72
2023-02-06T08:12:53.574Z,77.00
2023-02-06T08:15:21.416Z,77.13
2023-02-06T08:17:49.304Z,77.04
2023-02-06T08:20:17.321Z,76.99
2023-02-06T08:22:45.190Z,76.55
2023-02-06T08:25:13.117Z,75.88
2023-02-06T08:27:41.165Z,75.36
2023-02-06T08:30:09.564Z,75.41
2023-02-06T08:32:37.477Z,74.33
2023-02-06T08:35:05.859Z,75.41
2023-02-06T08:37:33.892Z,74.71
2023-02-06T08:40:01.896Z,74.06
2023-02-06T08:42:29.796Z,73.07
2023-02-06T08:44:57.779Z,74.14
2023-02-06T08:47:25.609Z,73.64
2023-02-06T08:49:54.656Z,72.22
2023-02-06T08:52:23.372Z,73.24
2023-02-06T08:54:52.125Z,72.35
2023-02-06T08:57:20.349Z,72.43
2023-02-06T08:59:49.678Z,71.63
2023-02-06T09:02:17.599Z,71.90
2023-02-06T09:04:45.613Z,72.10
2023-02-06T09:07:15.692Z,72.13
2023-02-06T09:09:44.889Z,69.92
2023-02-06T09:12:12.746Z,70.76
2023-02-06T09:14:40.633Z,70.01
2023-02-06T09:17:08.607Z,70.46
2023-02-06T09:19:36.532Z,71.41
2023-02-06T09:22:06.345Z,70.78
2023-02-06T09:24:35.062Z,71.36
2023-02-06T09:27:02.937Z,70.25
2023-02-06T09:29:34.170Z,69.54
2023-02-06T09:32:02.348Z,69.03
2023-02-06T09:34:30.342Z,69.01
2023-02-06T09:36:58.497Z,68.33
2023-02-06T09:39:26.790Z,68.71
2023-02-06T09:42:19.633Z,68.14
2023-02-06T09:44:51.479Z,68.58
2023-02-06T09:47:32.355Z,68.35
2023-02-06T09:50:40.181Z,68.79
2023-02-06T09:53:16.912Z,68.91
2023-02-06T09:55:51.739Z,68.21
2023-02-06T09:58:47.283Z,68.33
2023-02-06T10:01:41.171Z,68.75
2023-02-06T10:04:42.165Z,68.60
2023-02-06T10:07:30.574Z,68.53
2023-02-06T10:10:18.159Z,68.81
2023-02-06T10:13:02.308Z,68.10
2023-02-06T10:15:46.250Z,67.57
2023-02-06T10:18:39.666Z,68.44
2023-02-06T10:21:32.336Z,67.91
2023-02-06T10:24:10.751Z,68.31
2023-02-06T10:26:40.455Z,67.26
2023-02-06T10:29:18.347Z,67.73
2023-02-06T10:31:57.662Z,66.90
2023-02-06T10:34:47.243Z,67.06
2023-02-06T10:37:36.829Z,66.95
2023-02-06T10:40:36.103Z,66.98
2023-02-06T10:43:22.369Z,67.32
2023-02-06T10:46:01.861Z,66.79
2023-02-06T10:48:54.352Z,68.02
2023-02-06T10:51:32.027Z,67.83
2023-02-06T10:54:14.890Z,66.87
2023-02-06T10:56:45.079Z,66.63
2023-02-06T10:59:35.363Z,65.51
2023-02-06T11:02:30.769Z,65.63
2023-02-06T11:05:25.338Z,65.98
2023-02-06T11:07:58.478Z,64.17
2023-02-06T11:10:26.713Z,64.99
2023-02-06T11:13:22.926Z,63.04
2023-02-06T11:16:01.724Z,63.16
2023-02-06T11:18:36.437Z,62.44
2023-02-06T11:21:05.078Z,62.74
2023-02-06T11:23:36.550Z,64.34
2023-02-06T11:26:12.959Z,62.64
2023-02-06T11:28:54.279Z,62.89
2023-02-06T11:31:40.942Z,62.09
2023-02-06T11:34:37.471Z,61.98
2023-02-06T11:37:27.440Z,62.32
2023-02-06T11:40:13.978Z,62.64
2023-02-06T11:42:41.971Z,61.99
2023-02-06T11:45:29.162Z,62.88
2023-02-06T11:47:57.468Z,61.27
2023-02-06T11:50:35.326Z,61.94
2023-02-06T11:53:18.086Z,61.54
2023-02-06T11:55:47.017Z,60.94
2023-02-06T11:58:14.802Z,60.42
2023-02-06T12:01:01.010Z,59.65
2023-02-06T12:03:33.616Z,59.52
2023-02-06T12:06:18.134Z,59.89
2023-02-06T12:08:48.965Z,60.92
2023-02-06T12:11:37.217Z,58.98
2023-02-06T12:14:11.256Z,60.37
2023-02-06T12:16:43.398Z,57.59
2023-02-06T12:19:19.024Z,57.37
2023-02-06T12:21:54.817Z,57.04
2023-02-06T12:24:22.677Z,56.42
2023-02-06T12:26:54.834Z,55.72
2023-02-06T12:29:33.570Z,57.72
2023-02-06T12:32:09.928Z,58.50
2023-02-06T12:34:52.022Z,58.34
2023-02-06T12:37:37.814Z,57.19
2023-02-06T12:40:24.693Z,58.23
2023-02-06T12:43:04.021Z,58.07
2023-02-06T12:45:50.432Z,57.64
2023-02-06T12:48:41.496Z,57.81
2023-02-06T12:51:45.577Z,57.56
2023-02-06T12:54:23.576Z,57.75
2023-02-06T12:57:05.940Z,58.40
2023-02-06T12:59:57.178Z,58.76
2023-02-06T13:02:50.446Z,58.49
2023-02-06T13:05:30.187Z,58.91
2023-02-06T13:08:06.555Z,59.29
2023-02-06T13:10:36.801Z,59.14
2023-02-06T13:13:05.296Z,59.39
2023-02-06T13:15:40.514Z,59.58
2023-02-06T13:18:50.487Z,59.98
2023-02-06T13:21:32.233Z,59.48
2023-02-06T13:24:03.104Z,59.97
2023-02-06T13:26:43.115Z,59.60
2023-02-06T13:29:41.512Z,59.92
2023-02-06T13:32:12.560Z,59.34
2023-02-06T13:34:43.246Z,60.13
2023-02-06T13:37:30.062Z,60.06
2023-02-06T13:40:21.024Z,59.70
2023-02-06T13:43:00.440Z,60.03
2023-02-06T13:45:40.930Z,60.19
2023-02-06T13:48:08.965Z,59.38
2023-02-06T13:50:51.991Z,60.61
2023-02-06T13:53:41.018Z,59.98
2023-02-06T13:56:20.410Z,59.84
2023-02-06T13:58:53.800Z,60.20
2023-02-06T14:01:31.615Z,60.68
2023-02-06T14:04:00.105Z,60.63
2023-02-06T14:06:44.295Z,61.46
2023-02-06T14:09:30.580Z,60.97
2023-02-06T14:12:35.302Z,60.96
2023-02-06T14:15:41.073Z,60.93
2023-02-06T14:18:39.801Z,61.16
2023-02-06T14:21:32.424Z,61.77
2023-02-06T14:24:30.147Z,61.70
2023-02-06T14:27:26.311Z,61.70
2023-02-06T14:30:03.010Z,61.55
2023-02-06T14:32:39.985Z,62.39
2023-02-06T14:35:32.051Z,61.37
2023-02-06T14:38:46.426Z,61.81
2023-02-06T14:41:15.308Z,62.11
2023-02-06T14:43:46.244Z,62.28
2023-02-06T14:46:17.269Z,61.83
2023-02-06T14:48:52.188Z,62.56
2023-02-06T14:51:26.640Z,62.26
2023-02-06T14:54:03.992Z,61.74
2023-02-06T14:56:37.658Z,62.43
2023-02-06T14:59:16.872Z,63.40
2023-02-06T15:01:48.152Z,63.08
2023-02-06T15:04:17.138Z,63.34
2023-02-06T15:06:51.395Z,63.60
2023-02-06T15:09:54.645Z,64.09
2023-02-06T15:12:26.613Z,64.35
2023-02-06T15:15:15.479Z,63.77
2023-02-06T15:17:43.905Z,63.66
2023-02-06T15:20:20.789Z,63.88
2023-02-06T15:22:49.038Z,63.23
2023-02-06T15:25:40.656Z,64.55
2023-02-06T15:28:18.756Z,64.59
2023-02-06T15:30:47.285Z,64.69
2023-02-06T15:33:22.807Z,66.74
2023-02-06T15:35:53.693Z,68.15
2023-02-06T15:38:24.179Z,65.09
2023-02-06T15:41:00.437Z,65.54
2023-02-06T15:43:29.181Z,65.86
2023-02-06T15:46:00.210Z,66.79
2023-02-06T15:48:43.722Z,66.51
2023-02-06T15:51:49.222Z,66.84
2023-02-06T15:54:23.372Z,66.85
2023-02-06T15:56:54.812Z,67.04
2023-02-06T15:59:25.673Z,66.45
2023-02-06T16:01:57.086Z,66.35
2023-02-06T16:04:39.752Z,68.53
2023-02-06T16:07:21.799Z,67.54
2023-02-06T16:09:54.828Z,68.19
2023-02-06T16:12:23.061Z,69.03
2023-02-06T16:14:59.548Z,67.95
2023-02-06T16:17:34.104Z,68.13
2023-02-06T16:20:05.484Z,68.06
2023-02-06T16:22:38.342Z,68.32
2023-02-06T16:25:25.955Z,67.84
2023-02-06T16:27:54.058Z,68.02
2023-02-06T16:30:34.893Z,68.37
2023-02-06T16:33:22.121Z,68.33
2023-02-06T16:35:50.047Z,69.08
2023-02-06T16:38:18.188Z,69.08
2023-02-06T16:40:46.318Z,69.45
2023-02-06T16:43:14.214Z,69.85
2023-02-06T16:45:42.132Z,68.67
2023-02-06T16:48:17.228Z,69.02
2023-02-06T16:50:47.601Z,69.48
2023-02-06T16:53:22.056Z,68.75
2023-02-06T16:55:50.635Z,69.88
2023-02-06T16:58:24.154Z,69.65
2023-02-06T17:00:52.203Z,70.44
2023-02-06T17:03:20.097Z,70.64
2023-02-06T17:05:49.361Z,71.36
2023-02-06T17:08:19.990Z,70.98
2023-02-06T17:10:48.553Z,70.50
2023-02-06T17:13:22.136Z,71.57
2023-02-06T17:15:53.151Z,71.27
2023-02-06T17:18:22.979Z,70.96
2023-02-06T17:20:53.002Z,72.18
2023-02-06T17:23:21.098Z,72.10
2023-02-06T17:25:50.966Z,72.57
2023-02-06T17:28:19.968Z,72.93
2023-02-06T17:30:49.832Z,73.07
2023-02-06T17:33:17.841Z,71.70
2023-02-06T17:35:46.797Z,70.83
2023-02-06T17:38:14.918Z,70.69
2023-02-06T17:40:42.980Z,69.90
2023-02-06T17:43:10.872Z,69.48
2023-02-06T17:45:39.720Z,69.42
2023-02-06T17:48:08.318Z,69.98
2023-02-06T17:50:38.039Z,70.99
2023-02-06T17:53:07.144Z,70.47
2023-02-06T17:55:35.916Z,70.02
2023-02-06T17:58:04.756Z,70.81
2023-02-06T18:00:33.018Z,70.88
2023-02-06T18:03:01.130Z,69.06
2023-02-06T18:05:29.112Z,69.56
2023-02-06T18:07:56.974Z,69.65
2023-02-06T18:10:25.637Z,69.20
2023-02-06T18:12:53.656Z,70.26
2023-02-06T18:15:21.571Z,70.01
2023-02-06T18:17:49.602Z,69.09
2023-02-06T18:20:17.804Z,69.78
2023-02-06T18:22:46.690Z,69.77
2023-02-06T18:25:15.039Z,69.41
2023-02-06T18:27:45.671Z,70.00
2023-02-06T18:30:15.431Z,70.33
2023-02-06T18:32:44.085Z,70.16
2023-02-06T18:35:12.238Z,69.99
2023-02-06T18:37:40.221Z,69.03
2023-02-06T18:40:08.608Z,69.33
2023-02-06T18:42:51.839Z,70.49
2023-02-06T18:45:21.701Z,70.00
2023-02-06T18:47:51.471Z,69.49
2023-02-06T18:50:21.978Z,70.26
2023-02-06T18:52:50.624Z,69.22
2023-02-06T18:55:19.608Z,69.57
2023-02-06T18:57:47.596Z,69.86
2023-02-06T19:00:19.136Z,71.02
2023-02-06T19:02:47.324Z,69.37
2023-02-06T19:05:16.020Z,70.72
2023-02-06T19:07:48.371Z,70.84
2023-02-06T19:10:16.888Z,70.11
2023-02-06T19:12:45.096Z,70.33
2023-02-06T19:15:14.926Z,71.10
2023-02-06T19:17:42.961Z,70.26
2023-02-06T19:20:11.725Z,70.37
2023-02-06T19:22:39.646Z,69.53
2023-02-06T19:25:11.372Z,70.36
2023-02-06T19:27:40.082Z,70.36
2023-02-06T19:30:08.503Z,69.85
2023-02-06T19:32:36.569Z,69.99
2023-02-06T19:35:04.856Z,70.21
2023-02-06T19:37:32.811Z,69.72
2023-02-06T19:40:00.736Z,69.72
2023-02-06T19:42:28.620Z,70.82
2023-02-06T19:44:56.454Z,69.51
2023-02-06T19:47:24.446Z,70.30
2023-02-06T19:49:52.869Z,70.57
2023-02-06T19:52:21.123Z,69.83
2023-02-06T19:54:49.023Z,69.89
2023-02-06T19:57:19.337Z,70.33
2023-02-06T19:59:47.257Z,70.47
2023-02-06T20:02:15.764Z,69.39
2023-02-06T20:04:45.248Z,69.73
2023-02-06T20:07:13.310Z,68.83
2023-02-06T20:09:42.311Z,68.89
2023-02-06T20:12:12.423Z,69.41
2023-02-06T20:14:40.323Z,68.85
2023-02-06T20:17:08.533Z,68.48
2023-02-06T20:19:36.560Z,69.23
2023-02-06T20:22:05.259Z,69.36
2023-02-06T20:24:33.285Z,69.86
2023-02-06T20:27:07.227Z,69.87
2023-02-06T20:29:38.351Z,68.50
2023-02-06T20:32:07.254Z,68.96
2023-02-06T20:34:35.611Z,68.67
2023-02-06T20:37:04.390Z,68.58
2023-02-06T20:39:32.760Z,67.86
2023-02-06T20:42:00.873Z,69.05
2023-02-06T20:44:29.724Z,68.68
2023-02-06T20:46:57.679Z,68.43
2023-02-06T20:49:27.586Z,69.10
2023-02-06T20:51:55.642Z,69.66
2023-02-06T20:54:25.916Z,70.05
2023-02-06T20:56:54.036Z,70.66
2023-02-06T20:59:22.685Z,71.71
2023-02-06T21:01:50.626Z,70.57
2023-02-06T21:04:19.400Z,69.35
2023-02-06T21:06:50.376Z,70.63
2023-02-06T21:09:19.290Z,70.39
2023-02-06T21:11:48.782Z,70.32
2023-02-06T21:14:17.665Z,70.62
2023-02-06T21:16:45.938Z,69.42
2023-02-06T21:19:16.809Z,70.35
2023-02-06T21:21:46.340Z,70.29
2023-02-06T21:24:15.904Z,70.90
2023-02-06T21:26:43.951Z,70.90
2023-02-06T21:29:14.065Z,71.25
2023-02-06T21:31:42.844Z,69.45
2023-02-06T21:34:18.010Z,70.44
2023-02-06T21:36:46.120Z,72.13
2023-02-06T21:39:21.881Z,72.33
2023-02-06T21:41:51.941Z,71.54
2023-02-06T21:44:21.534Z,71.17
2023-02-06T21:46:50.047Z,71.76
2023-02-06T21:49:18.674Z,71.23
2023-02-06T21:51:46.610Z,71.94
2023-02-06T21:54:14.627Z,72.01
2023-02-06T21:56:42.922Z,71.51
2023-02-06T21:59:12.108Z,71.99
2023-02-06T22:01:41.254Z,71.66
2023-02-06T22:04:11.339Z,71.25
2023-02-06T22:06:40.733Z,71.70
2023-02-06T22:09:15.193Z,72.66
2023-02-06T22:11:45.312Z,71.38
2023-02-06T22:14:15.980Z,70.54
2023-02-06T22:16:46.896Z,71.75
2023-02-06T22:19:16.152Z,71.91
2023-02-06T22:21:44.817Z,71.68
2023-02-06T22:24:12.783Z,72.38
2023-02-06T22:26:41.503Z,71.53
2023-02-06T22:29:15.238Z,71.57
2023-02-06T22:31:44.129Z,71.41
2023-02-06T22:34:20.569Z,70.65
2023-02-06T22:36:50.934Z,71.46
2023-02-06T22:39:19.604Z,70.55
2023-02-06T22:41:47.778Z,71.15
2023-02-06T22:44:17.562Z,71.76
2023-02-06T22:46:48.383Z,71.80
2023-02-06T22:49:16.363Z,71.57
2023-02-06T22:51:44.908Z,71.76
2023-02-06T22:54:14.291Z,71.27
2023-02-06T22:56:43.603Z,70.89
2023-02-06T22:59:16.964Z,70.30
2023-02-06T23:01:54.381Z,69.72
2023-02-06T23:04:25.111Z,70.84
2023-02-06T23:06:54.158Z,70.42
2023-02-06T23:09:25.249Z,71.00
2023-02-06T23:11:54.157Z,71.76
2023-02-06T23:14:22.194Z,71.38
2023-02-06T23:16:50.866Z,70.89
2023-02-06T23:19:19.580Z,70.29
2023-02-06T23:21:49.238Z,70.70
2023-02-06T23:24:17.644Z,70.21
2023-02-06T23:26:49.174Z,70.56
2023-02-06T23:29:19.203Z,70.77
2023-02-06T23:31:48.121Z,70.57
2023-02-06T23:34:17.581Z,69.81
2023-02-06T23:36:46.340Z,70.15
2023-02-06T23:39:14.272Z,70.27
2023-02-06T23:41:42.281Z,71.36
2023-02-06T23:44:10.834Z,71.19
2023-02-06T23:46:39.854Z,68.80
2023-02-06T23:49:08.780Z,69.98
2023-02-06T23:51:38.198Z,69.67
2023-02-06T23:54:07.643Z,69.47
2023-02-06T23:56:36.440Z,70.01
2023-02-06T23:59:05.683Z,69.15
